createdAt,value
2018-05-13T00:00:09.697Z,12.83
2018-05-13T00:02:37.241Z,13.30
2018-05-13T00:05:04.761Z,11.90
2018-05-13T00:07:32.231Z,12.17
2018-05-13T00:09:59.788Z,11.67
2018-05-13T00:12:27.329Z,12.37
2018-05-13T00:14:54.861Z,12.23
2018-05-13T00:17:22.389Z,15.33
2018-05-13T00:19:49.918Z,15.33
2018-05-13T00:22:17.482Z,13.97
2018-05-13T00:24:45.035Z,14.07
2018-05-13T00:27:12.576Z,12.67
2018-05-13T00:29:40.106Z,13.07
2018-05-13T00:32:07.630Z,12.50
2018-05-13T00:34:35.151Z,13.13
2018-05-13T00:37:02.655Z,12.47
2018-05-13T00:39:30.177Z,13.63
2018-05-13T00:41:57.701Z,12.20
2018-05-13T00:44:25.214Z,12.53
2018-05-13T00:46:52.721Z,13.00
2018-05-13T00:49:20.238Z,13.63
2018-05-13T00:51:47.749Z,12.87
2018-05-13T00:54:27.149Z,13.50
2018-05-13T00:56:54.635Z,13.87
2018-05-13T00:59:22.186Z,13.10
2018-05-13T01:01:49.754Z,14.87
2018-05-13T01:04:17.287Z,13.87
2018-05-13T01:06:44.841Z,12.77
2018-05-13T01:09:12.405Z,13.87
2018-05-13T01:11:39.933Z,14.97
2018-05-13T01:14:07.465Z,14.43
2018-05-13T01:16:34.996Z,14.87
2018-05-13T01:19:02.558Z,13.53
2018-05-13T01:21:30.100Z,14.80
2018-05-13T01:23:57.658Z,13.73
2018-05-13T01:26:25.224Z,14.23
2018-05-13T01:28:52.740Z,14.23
2018-05-13T01:31:20.284Z,13.77
2018-05-13T01:33:47.809Z,14.40
2018-05-13T01:36:15.362Z,13.90
2018-05-13T01:38:42.863Z,14.03
2018-05-13T01:41:10.402Z,14.40
2018-05-13T01:43:37.906Z,13.40
2018-05-13T01:46:05.459Z,14.30
2018-05-13T01:48:32.987Z,12.93
2018-05-13T01:51:00.524Z,13.67
2018-05-13T01:53:28.083Z,11.97
2018-05-13T01:55:55.671Z,10.40
2018-05-13T01:58:23.195Z,8.43
2018-05-13T02:00:50.764Z,7.63
2018-05-13T02:03:18.311Z,6.67
2018-05-13T02:05:45.842Z,6.27
2018-05-13T02:10:44.953Z,5.50
2018-05-13T02:13:12.493Z,5.90
2018-05-13T02:15:40.285Z,6.20
2018-05-13T02:18:07.769Z,5.73
2018-05-13T02:20:35.310Z,6.43
2018-05-13T02:23:02.791Z,6.77
2018-05-13T02:25:30.305Z,6.90
2018-05-13T02:27:57.829Z,7.00
2018-05-13T02:30:25.342Z,7.70
2018-05-13T02:32:52.825Z,7.50
2018-05-13T02:35:20.366Z,7.40
2018-05-13T02:37:47.924Z,7.50
2018-05-13T02:40:15.443Z,9.30
2018-05-13T02:42:42.937Z,7.47
2018-05-13T02:45:10.494Z,6.47
2018-05-13T02:47:37.984Z,6.50
2018-05-13T02:50:05.528Z,5.13
2018-05-13T02:52:33.061Z,6.37
2018-05-13T02:55:00.553Z,5.50
2018-05-13T02:57:28.059Z,6.20
2018-05-13T02:59:55.570Z,6.17
2018-05-13T03:02:23.112Z,5.60
2018-05-13T03:04:50.622Z,6.47
2018-05-13T03:07:18.131Z,5.90
2018-05-13T03:09:45.645Z,6.87
2018-05-13T03:12:13.157Z,5.63
2018-05-13T03:14:40.647Z,6.33
2018-05-13T03:17:08.226Z,6.70
2018-05-13T03:19:35.734Z,6.73
2018-05-13T03:22:03.264Z,7.77
2018-05-13T03:24:30.754Z,8.70
2018-05-13T03:26:58.308Z,8.73
2018-05-13T03:29:26.626Z,8.90
2018-05-13T03:31:54.189Z,8.43
2018-05-13T03:34:21.734Z,8.47
2018-05-13T03:36:49.270Z,9.00
2018-05-13T03:39:16.755Z,9.83
2018-05-13T03:41:44.309Z,9.97
2018-05-13T03:44:11.889Z,9.93
2018-05-13T03:46:39.450Z,10.03
2018-05-13T03:49:06.987Z,8.80
2018-05-13T03:51:34.493Z,8.30
2018-05-13T03:54:01.991Z,8.00
2018-05-13T03:56:29.511Z,8.63
2018-05-13T03:58:57.029Z,8.37
2018-05-13T04:01:24.657Z,8.77
2018-05-13T04:03:52.347Z,8.80
2018-05-13T04:06:19.862Z,8.60
2018-05-13T04:08:59.246Z,8.30
2018-05-13T04:11:38.468Z,8.57
2018-05-13T04:14:17.587Z,7.97
2018-05-13T04:16:45.960Z,8.27
2018-05-13T04:19:13.481Z,8.23
2018-05-13T04:21:41.018Z,6.60
2018-05-13T04:24:08.570Z,7.87
2018-05-13T04:26:36.094Z,6.97
2018-05-13T04:29:03.656Z,7.10
2018-05-13T04:31:31.146Z,6.50
2018-05-13T04:33:58.640Z,6.47
2018-05-13T04:36:26.157Z,6.40
2018-05-13T04:38:53.694Z,6.77
2018-05-13T04:41:21.168Z,6.80
2018-05-13T04:43:48.687Z,7.03
2018-05-13T04:46:16.408Z,7.63
2018-05-13T04:48:44.247Z,7.20
2018-05-13T04:51:11.824Z,7.03
2018-05-13T04:53:39.337Z,7.00
2018-05-13T04:56:06.842Z,6.47
2018-05-13T04:58:34.356Z,6.40
2018-05-13T05:01:01.852Z,5.83
2018-05-13T05:03:29.362Z,6.37
2018-05-13T05:05:56.854Z,6.27
2018-05-13T05:08:24.352Z,6.10
2018-05-13T05:10:51.837Z,6.40
2018-05-13T05:13:19.349Z,6.77
2018-05-13T05:15:46.876Z,7.43
2018-05-13T05:18:14.434Z,7.90
2018-05-13T05:20:41.963Z,7.23
2018-05-13T05:23:09.475Z,7.77
2018-05-13T05:25:37.015Z,7.47
2018-05-13T05:28:04.547Z,8.47
2018-05-13T05:30:32.057Z,8.37
2018-05-13T05:32:59.585Z,8.83
2018-05-13T05:35:27.123Z,9.07
2018-05-13T05:37:54.666Z,9.40
2018-05-13T05:40:22.173Z,9.77
2018-05-13T05:42:49.703Z,8.93
2018-05-13T05:45:17.246Z,9.43
2018-05-13T05:47:44.775Z,9.33
2018-05-13T05:50:12.322Z,9.57
2018-05-13T05:52:39.849Z,8.30
2018-05-13T05:55:07.419Z,8.27
2018-05-13T05:57:34.911Z,8.20
2018-05-13T06:00:02.469Z,8.13
2018-05-13T06:02:29.974Z,8.33
2018-05-13T06:04:57.518Z,7.97
2018-05-13T06:07:25.258Z,8.60
2018-05-13T06:09:52.791Z,8.10
2018-05-13T06:12:20.342Z,8.00
2018-05-13T06:14:47.875Z,7.07
2018-05-13T06:17:15.403Z,8.10
2018-05-13T06:19:43.037Z,8.40
2018-05-13T06:22:10.455Z,7.97
2018-05-13T06:24:38.006Z,7.93
2018-05-13T06:27:05.548Z,6.60
2018-05-13T06:29:33.088Z,6.67
2018-05-13T06:32:00.628Z,6.73
2018-05-13T06:34:28.170Z,6.80
2018-05-13T06:36:55.695Z,7.93
2018-05-13T06:39:23.218Z,8.13
2018-05-13T06:41:50.791Z,9.17
2018-05-13T06:44:18.397Z,10.33
2018-05-13T06:46:46.044Z,12.20
2018-05-13T06:49:13.589Z,11.93
2018-05-13T06:51:41.166Z,14.13
2018-05-13T06:54:08.754Z,14.00
2018-05-13T06:56:36.408Z,15.00
2018-05-13T06:59:04.551Z,16.20
2018-05-13T07:01:32.201Z,17.53
2018-05-13T07:03:59.782Z,18.17
2018-05-13T07:06:27.353Z,19.70
2018-05-13T07:08:55.100Z,20.50
2018-05-13T07:11:22.711Z,19.93
2018-05-13T07:13:50.334Z,21.67
2018-05-13T07:16:17.925Z,20.80
2018-05-13T07:18:45.480Z,21.33
2018-05-13T07:21:13.129Z,19.90
2018-05-13T07:23:40.771Z,20.83
2018-05-13T07:26:08.353Z,20.73
2018-05-13T07:28:35.880Z,20.50
2018-05-13T07:31:03.463Z,20.33
2018-05-13T07:33:31.096Z,21.17
2018-05-13T07:35:58.654Z,20.53
2018-05-13T07:38:26.226Z,21.33
2018-05-13T07:40:53.811Z,20.83
2018-05-13T07:43:21.427Z,22.27
2018-05-13T07:45:49.028Z,20.73
2018-05-13T07:48:16.563Z,22.60
2018-05-13T07:50:44.208Z,22.47
2018-05-13T07:53:14.357Z,23.50
2018-05-13T07:55:41.972Z,23.97
2018-05-13T07:58:09.640Z,22.50
2018-05-13T08:00:37.605Z,24.27
2018-05-13T08:03:05.172Z,22.70
2018-05-13T08:05:32.764Z,20.83
2018-05-13T08:08:00.314Z,20.00
2018-05-13T08:10:27.927Z,22.23
2018-05-13T08:12:55.446Z,24.07
2018-05-13T08:15:22.991Z,23.70
2018-05-13T08:17:50.547Z,25.13
2018-05-13T08:20:18.177Z,28.97
2018-05-13T08:22:45.654Z,28.30
2018-05-13T08:25:13.265Z,29.67
2018-05-13T08:27:40.805Z,29.80
2018-05-13T08:30:08.334Z,30.23
2018-05-13T08:32:35.895Z,29.87
2018-05-13T08:35:03.603Z,31.13
2018-05-13T08:37:31.167Z,30.53
2018-05-13T08:39:58.751Z,28.73
2018-05-13T08:42:26.364Z,29.43
2018-05-13T08:44:53.996Z,31.73
2018-05-13T08:47:21.554Z,30.83
2018-05-13T08:49:49.166Z,31.37
2018-05-13T08:52:16.816Z,29.97
2018-05-13T08:54:44.399Z,32.77
2018-05-13T08:57:11.972Z,34.03
2018-05-13T08:59:39.795Z,30.67
2018-05-13T09:02:07.246Z,30.70
2018-05-13T09:04:34.721Z,32.43
2018-05-13T09:07:02.216Z,33.87
2018-05-13T09:09:29.686Z,33.77
2018-05-13T09:11:57.174Z,32.27
2018-05-13T09:14:24.672Z,33.10
2018-05-13T09:16:52.182Z,34.63
2018-05-13T09:19:19.664Z,32.97
2018-05-13T09:21:47.160Z,31.60
2018-05-13T09:24:14.638Z,32.90
2018-05-13T09:26:42.195Z,34.20
2018-05-13T09:29:09.667Z,34.57
2018-05-13T09:31:37.224Z,34.63
2018-05-13T09:34:04.717Z,34.17
2018-05-13T09:36:32.198Z,37.23
2018-05-13T09:38:59.916Z,37.10
2018-05-13T09:41:27.394Z,35.83
2018-05-13T09:43:54.895Z,34.60
2018-05-13T09:46:22.374Z,37.13
2018-05-13T09:48:49.976Z,37.27
2018-05-13T09:51:17.533Z,36.80
2018-05-13T09:53:44.978Z,36.70
2018-05-13T09:56:12.459Z,34.80
2018-05-13T09:58:39.966Z,37.17
2018-05-13T10:01:07.437Z,35.47
2018-05-13T10:03:34.930Z,34.83
2018-05-13T10:06:02.409Z,33.67
2018-05-13T10:08:29.911Z,35.73
2018-05-13T10:10:57.382Z,33.23
2018-05-13T10:13:24.870Z,33.47
2018-05-13T10:15:52.403Z,35.13
2018-05-13T10:18:19.892Z,33.63
2018-05-13T10:20:47.365Z,34.30
2018-05-13T10:23:14.849Z,35.50
2018-05-13T10:25:42.334Z,37.93
2018-05-13T10:28:09.817Z,35.93
2018-05-13T10:30:37.289Z,35.60
2018-05-13T10:33:04.769Z,37.90
2018-05-13T10:35:32.241Z,34.77
2018-05-13T10:37:59.732Z,32.07
2018-05-13T10:40:27.206Z,31.50
2018-05-13T10:42:54.693Z,33.37
2018-05-13T10:45:22.801Z,34.23
2018-05-13T10:47:50.294Z,34.63
2018-05-13T10:50:17.769Z,34.60
2018-05-13T10:52:45.273Z,36.40
2018-05-13T10:55:12.741Z,38.57
2018-05-13T10:57:40.272Z,35.67
2018-05-13T11:00:07.729Z,34.03
2018-05-13T11:02:35.205Z,29.93
2018-05-13T11:05:03.558Z,28.73
2018-05-13T11:07:31.033Z,27.63
2018-05-13T11:09:58.527Z,26.30
2018-05-13T11:12:25.993Z,27.10
2018-05-13T11:14:53.490Z,26.50
2018-05-13T11:17:20.965Z,25.50
2018-05-13T11:19:48.458Z,24.77
2018-05-13T11:22:15.934Z,22.67
2018-05-13T11:24:43.417Z,23.63
2018-05-13T11:27:10.901Z,21.67
2018-05-13T11:29:38.400Z,22.80
2018-05-13T11:32:05.866Z,25.40
2018-05-13T11:34:33.380Z,25.20
2018-05-13T11:37:00.849Z,26.30
2018-05-13T11:39:28.342Z,27.77
2018-05-13T11:41:55.810Z,28.77
2018-05-13T11:44:23.541Z,29.40
2018-05-13T11:46:51.042Z,28.50
2018-05-13T11:49:18.538Z,29.00
2018-05-13T11:51:46.009Z,33.27
2018-05-13T11:54:13.498Z,30.83
2018-05-13T11:56:40.958Z,33.90
2018-05-13T11:59:08.458Z,32.80
2018-05-13T12:01:35.922Z,34.40
2018-05-13T12:04:03.410Z,31.47
2018-05-13T12:06:30.882Z,32.83
2018-05-13T12:08:58.373Z,32.87
2018-05-13T12:11:31.746Z,33.73
2018-05-13T12:13:59.227Z,32.77
2018-05-13T12:16:27.492Z,32.80
2018-05-13T12:18:54.990Z,31.07
2018-05-13T12:21:22.475Z,33.67
2018-05-13T12:23:49.938Z,28.83
2018-05-13T12:26:17.424Z,31.30
2018-05-13T12:28:44.975Z,28.90
2018-05-13T12:31:12.398Z,29.30
2018-05-13T12:33:39.869Z,30.77
2018-05-13T12:36:07.365Z,30.30
2018-05-13T12:38:34.843Z,31.00
2018-05-13T12:41:02.347Z,32.63
2018-05-13T12:43:29.805Z,31.90
2018-05-13T12:45:57.294Z,31.73
2018-05-13T12:48:24.765Z,33.53
2018-05-13T12:50:52.246Z,32.00
2018-05-13T12:53:19.706Z,33.07
2018-05-13T12:55:47.185Z,33.63
2018-05-13T12:58:14.650Z,32.73
2018-05-13T13:00:42.133Z,33.80
2018-05-13T13:03:09.627Z,32.87
2018-05-13T13:05:37.112Z,31.80
2018-05-13T13:08:04.588Z,30.83
2018-05-13T13:10:32.122Z,34.73
2018-05-13T13:12:59.641Z,31.60
2018-05-13T13:15:27.102Z,31.10
2018-05-13T13:17:54.569Z,30.63
2018-05-13T13:20:22.061Z,31.37
2018-05-13T13:22:49.539Z,31.67
2018-05-13T13:25:17.030Z,31.93
2018-05-13T13:27:44.502Z,32.00
2018-05-13T13:30:11.981Z,32.63
2018-05-13T13:32:39.454Z,31.53
2018-05-13T13:35:07.210Z,32.97
2018-05-13T13:37:34.678Z,33.53
2018-05-13T13:40:02.185Z,33.20
2018-05-13T13:42:29.666Z,30.37
2018-05-13T13:44:57.148Z,32.73
2018-05-13T13:47:25.746Z,31.93
2018-05-13T13:49:53.134Z,30.50
2018-05-13T13:52:20.617Z,29.93
2018-05-13T13:54:48.390Z,30.47
2018-05-13T13:57:15.904Z,30.17
2018-05-13T13:59:43.373Z,32.57
2018-05-13T14:02:10.859Z,31.77
2018-05-13T14:04:38.378Z,35.83
2018-05-13T14:07:05.836Z,32.27
2018-05-13T14:09:33.312Z,30.93
2018-05-13T14:12:00.860Z,32.80
2018-05-13T14:14:28.278Z,33.30
2018-05-13T14:16:55.774Z,29.57
2018-05-13T14:19:23.234Z,31.10
2018-05-13T14:21:50.723Z,32.97
2018-05-13T14:24:18.194Z,31.87
2018-05-13T14:26:45.683Z,31.87
2018-05-13T14:29:13.175Z,30.57
2018-05-13T14:31:40.660Z,31.27
2018-05-13T14:34:08.138Z,32.43
2018-05-13T14:36:35.634Z,34.33
2018-05-13T14:39:11.822Z,36.37
2018-05-13T14:41:30.647Z,32.47
2018-05-13T14:43:58.082Z,33.40
2018-05-13T14:46:25.577Z,31.60
2018-05-13T14:48:53.082Z,31.40
2018-05-13T14:51:20.567Z,30.50
2018-05-13T14:53:48.039Z,32.03
2018-05-13T14:56:15.531Z,32.60
2018-05-13T14:58:42.998Z,31.27
2018-05-13T15:01:10.508Z,31.03
2018-05-13T15:03:37.973Z,31.90
2018-05-13T15:06:05.438Z,30.20
2018-05-13T15:08:32.922Z,33.60
2018-05-13T15:11:00.386Z,32.53
2018-05-13T15:13:27.875Z,33.80
2018-05-13T15:15:55.342Z,32.17
2018-05-13T15:18:22.846Z,31.83
2018-05-13T15:20:50.327Z,33.70
2018-05-13T15:23:17.822Z,36.03
2018-05-13T15:25:45.307Z,32.73
2018-05-13T15:28:12.794Z,34.73
2018-05-13T15:30:40.265Z,32.70
2018-05-13T15:33:07.763Z,32.13
2018-05-13T15:35:35.234Z,31.63
2018-05-13T15:38:02.729Z,34.20
2018-05-13T15:40:30.204Z,33.17
2018-05-13T15:42:57.753Z,33.00
2018-05-13T15:45:25.173Z,33.80
2018-05-13T15:47:52.662Z,33.53
2018-05-13T15:50:20.139Z,34.03
2018-05-13T15:52:47.623Z,33.37
2018-05-13T15:55:15.189Z,33.27
2018-05-13T15:57:42.596Z,33.73
2018-05-13T16:00:10.057Z,31.20
2018-05-13T16:02:37.545Z,33.60
2018-05-13T16:05:05.023Z,34.23
2018-05-13T16:07:32.516Z,33.17
2018-05-13T16:09:59.992Z,33.83
2018-05-13T16:12:27.485Z,34.70
2018-05-13T16:14:54.954Z,36.00
2018-05-13T16:17:22.445Z,35.10
2018-05-13T16:19:49.998Z,35.57
2018-05-13T16:22:17.398Z,38.93
2018-05-13T16:24:44.891Z,36.73
2018-05-13T16:27:12.371Z,35.53
2018-05-13T16:29:39.948Z,34.63
2018-05-13T16:32:07.347Z,36.83
2018-05-13T16:34:34.838Z,35.47
2018-05-13T16:37:02.305Z,34.87
2018-05-13T16:39:29.800Z,34.17
2018-05-13T16:41:57.316Z,37.77
2018-05-13T16:44:24.806Z,36.10
2018-05-13T16:46:53.049Z,37.13
2018-05-13T16:49:20.541Z,38.87
2018-05-13T16:51:48.018Z,39.30
2018-05-13T16:54:15.518Z,37.83
2018-05-13T16:56:43.006Z,39.63
2018-05-13T16:59:10.490Z,39.67
2018-05-13T17:01:37.958Z,41.43
2018-05-13T17:04:05.446Z,40.50
2018-05-13T17:06:32.919Z,41.00
2018-05-13T17:09:00.411Z,40.53
2018-05-13T17:11:27.884Z,38.93
2018-05-13T17:13:55.376Z,39.23
2018-05-13T17:16:22.857Z,40.17
2018-05-13T17:18:50.350Z,41.80
2018-05-13T17:21:17.817Z,40.60
2018-05-13T17:23:45.310Z,40.70
2018-05-13T17:26:12.788Z,40.77
2018-05-13T17:28:40.279Z,40.57
2018-05-13T17:31:07.750Z,41.53
2018-05-13T17:33:35.234Z,40.73
2018-05-13T17:36:02.718Z,43.90
2018-05-13T17:38:30.210Z,42.07
2018-05-13T17:40:57.697Z,40.93
2018-05-13T17:43:25.211Z,41.90
2018-05-13T17:45:52.716Z,44.03
2018-05-13T17:48:20.183Z,41.97
2018-05-13T17:50:47.678Z,41.53
2018-05-13T17:53:15.230Z,41.97
2018-05-13T17:55:42.735Z,40.27
2018-05-13T17:58:10.201Z,41.43
2018-05-13T18:00:37.696Z,40.27
2018-05-13T18:03:05.247Z,41.47
2018-05-13T18:05:32.682Z,41.30
2018-05-13T18:08:00.161Z,40.90
2018-05-13T18:10:27.654Z,41.43
2018-05-13T18:12:55.128Z,41.00
2018-05-13T18:15:22.607Z,43.07
2018-05-13T18:17:50.089Z,41.87
2018-05-13T18:20:17.586Z,39.87
2018-05-13T18:22:45.069Z,39.90
2018-05-13T18:25:12.559Z,41.40
2018-05-13T18:27:40.026Z,41.90
2018-05-13T18:30:07.517Z,41.07
2018-05-13T18:32:34.987Z,41.83
2018-05-13T18:35:02.475Z,43.00
2018-05-13T18:37:29.949Z,42.40
2018-05-13T18:39:57.436Z,41.67
2018-05-13T18:42:24.923Z,42.90
2018-05-13T18:44:52.410Z,43.33
2018-05-13T18:47:19.881Z,44.77
2018-05-13T18:49:47.374Z,42.57
2018-05-13T18:52:14.838Z,41.00
2018-05-13T18:54:42.335Z,42.13
2018-05-13T18:57:09.808Z,42.97
2018-05-13T18:59:37.301Z,43.03
2018-05-13T19:02:04.778Z,43.70
2018-05-13T19:04:32.247Z,45.47
2018-05-13T19:06:59.746Z,44.83
2018-05-13T19:09:27.235Z,45.03
2018-05-13T19:11:54.728Z,44.67
2018-05-13T19:14:22.193Z,44.53
2018-05-13T19:16:49.680Z,44.43
2018-05-13T19:19:17.226Z,42.97
2018-05-13T19:21:44.710Z,46.43
2018-05-13T19:24:12.182Z,47.27
2018-05-13T19:26:39.671Z,44.27
2018-05-13T19:29:07.284Z,46.80
2018-05-13T19:31:34.793Z,46.43
2018-05-13T19:34:02.254Z,46.53
2018-05-13T19:36:29.737Z,45.97
2018-05-13T19:38:57.209Z,48.90
2018-05-13T19:41:24.750Z,46.07
2018-05-13T19:43:52.222Z,46.53
2018-05-13T19:46:19.714Z,46.13
2018-05-13T19:48:47.259Z,45.67
2018-05-13T19:51:14.719Z,45.50
2018-05-13T19:53:42.190Z,44.00
2018-05-13T19:56:09.674Z,43.87
2018-05-13T19:58:37.149Z,46.63
2018-05-13T20:01:04.634Z,47.00
2018-05-13T20:03:32.296Z,44.73
2018-05-13T20:05:59.610Z,44.20
2018-05-13T20:08:27.074Z,44.87
2018-05-13T20:10:54.580Z,43.00
2018-05-13T20:13:22.054Z,42.37
2018-05-13T20:15:49.538Z,42.87
2018-05-13T20:18:17.011Z,43.87
2018-05-13T20:20:44.493Z,41.83
2018-05-13T20:23:23.658Z,42.13
2018-05-13T20:25:51.098Z,40.87
2018-05-13T20:28:18.581Z,42.30
2018-05-13T20:30:46.042Z,39.53
2018-05-13T20:33:13.530Z,38.23
2018-05-13T20:35:40.998Z,37.50
2018-05-13T20:38:08.483Z,42.80
2018-05-13T20:40:35.958Z,39.67
2018-05-13T20:43:03.440Z,38.80
2018-05-13T20:45:30.905Z,40.40
2018-05-13T20:47:58.392Z,39.37
2018-05-13T20:50:25.858Z,40.13
2018-05-13T20:52:53.349Z,40.43
2018-05-13T20:55:20.813Z,39.77
2018-05-13T20:57:48.306Z,40.83
2018-05-13T21:00:15.784Z,40.07
2018-05-13T21:02:43.278Z,39.57
2018-05-13T21:05:10.750Z,41.00
2018-05-13T21:07:38.250Z,41.20
2018-05-13T21:10:05.714Z,39.87
2018-05-13T21:12:33.226Z,42.33
2018-05-13T21:15:00.689Z,40.77
2018-05-13T21:17:28.187Z,40.73
2018-05-13T21:19:55.656Z,39.50
2018-05-13T21:22:23.137Z,38.53
2018-05-13T21:24:50.601Z,38.73
2018-05-13T21:27:18.086Z,41.73
2018-05-13T21:29:45.551Z,39.43
2018-05-13T21:32:13.045Z,38.97
2018-05-13T21:34:40.520Z,36.47
2018-05-13T21:37:07.981Z,32.73
2018-05-13T21:39:35.470Z,35.73
2018-05-13T21:42:02.934Z,34.80
2018-05-13T21:44:30.428Z,34.07
2018-05-13T21:46:57.893Z,34.33
2018-05-13T21:49:25.378Z,33.63
2018-05-13T21:51:52.838Z,33.37
2018-05-13T21:54:20.336Z,34.90
2018-05-13T21:56:47.813Z,35.43
2018-05-13T21:59:15.311Z,34.63
2018-05-13T22:01:42.801Z,36.23
2018-05-13T22:04:10.283Z,37.30
2018-05-13T22:06:37.755Z,34.57
2018-05-13T22:09:06.157Z,35.67
2018-05-13T22:11:33.685Z,34.30
2018-05-13T22:14:01.175Z,39.53
2018-05-13T22:16:28.642Z,37.03
2018-05-13T22:18:56.134Z,35.00
2018-05-13T22:21:23.603Z,36.10
2018-05-13T22:23:51.098Z,35.87
2018-05-13T22:26:18.570Z,35.93
2018-05-13T22:28:46.062Z,36.50
2018-05-13T22:31:13.536Z,36.33
2018-05-13T22:33:41.027Z,36.17
2018-05-13T22:36:08.502Z,38.37
2018-05-13T22:38:35.992Z,38.77
2018-05-13T22:41:03.474Z,40.07
2018-05-13T22:43:31.019Z,39.27
2018-05-13T22:45:58.491Z,39.07
2018-05-13T22:48:25.978Z,40.63
2018-05-13T22:50:53.451Z,41.30
2018-05-13T22:53:20.923Z,39.50
2018-05-13T22:55:48.410Z,40.00
2018-05-13T22:58:15.875Z,40.27
2018-05-13T23:00:43.369Z,41.47
2018-05-13T23:03:10.895Z,42.10
2018-05-13T23:05:38.386Z,42.03
2018-05-13T23:08:05.878Z,42.73
2018-05-13T23:10:33.362Z,41.27
2018-05-13T23:13:00.822Z,42.07
2018-05-13T23:15:28.311Z,42.90
2018-05-13T23:17:55.775Z,43.17
2018-05-13T23:20:23.261Z,44.83
2018-05-13T23:22:50.725Z,44.43
2018-05-13T23:25:18.209Z,43.93
2018-05-13T23:27:45.673Z,42.67
2018-05-13T23:30:13.173Z,43.70
2018-05-13T23:32:40.634Z,43.47
2018-05-13T23:35:08.123Z,44.13
2018-05-13T23:37:36.309Z,44.20
2018-05-13T23:40:03.794Z,43.07
2018-05-13T23:42:31.258Z,42.33
2018-05-13T23:44:58.741Z,42.90
2018-05-13T23:47:26.205Z,46.33
2018-05-13T23:49:53.689Z,45.70
2018-05-13T23:52:21.161Z,42.23
2018-05-13T23:54:48.657Z,44.50
2018-05-13T23:57:16.117Z,47.27
2018-05-13T23:59:43.612Z,45.13
